Time;durP1;ratioP1;P1;durP2;ratioP2;P2;SDS_P1;SDS_P2;PMS_P1;PMS_P2;Temp;Humidity;BMP_temperature;BMP_pressure;BME280_temperature;BME280_humidity;BME280_pressure;Samples;Min_cycle;Max_cycle;Signal;HPM_P1;HPM_P2
2024/02/04 00:01:32;;;;;;;0.60;0.60;;;;;;;;;;5909583;28;20045;-86
2024/02/04 00:04:24;;;;;;;1.08;0.75;;;;;;;;;;5908426;28;20052;-85
2024/02/04 00:07:15;;;;;;;0.82;0.77;;;;;;;;;;5909826;28;20067;-85
2024/02/04 00:10:06;;;;;;;2.50;0.63;;;;;;;;;;5908422;28;20094;-84
2024/02/04 00:12:57;;;;;;;1.90;1.73;;;;;;;;;;5910323;28;20057;-85
2024/02/04 00:15:48;;;;;;;1.25;1.15;;;;;;;;;;5907936;28;20406;-85
2024/02/04 00:18:40;;;;;;;3.20;1.17;;;;;;;;;;5908264;28;20064;-85
2024/02/04 00:21:31;;;;;;;2.60;1.63;;;;;;;;;;5909291;28;20044;-85
2024/02/04 00:24:22;;;;;;;1.48;1.38;;;;;;;;;;5909420;28;20051;-85
2024/02/04 00:27:13;;;;;;;2.28;2.08;;;;;;;;;;5908558;28;20067;-86
2024/02/04 00:30:04;;;;;;;3.00;2.08;;;;;;;;;;5909491;28;20517;-85
2024/02/04 00:32:55;;;;;;;3.50;2.53;;;;;;;;;;5908746;28;20446;-86
2024/02/04 00:35:46;;;;;;;1.77;1.67;;;;;;;;;;5908243;28;20052;-86
2024/02/04 00:38:37;;;;;;;1.50;1.40;;;;;;;;;;5909525;28;20048;-85
2024/02/04 00:41:28;;;;;;;1.92;1.75;;;;;;;;;;5907972;28;20067;-84
2024/02/04 00:44:18;;;;;;;2.60;1.58;;;;;;;;;;5907858;28;20049;-85
2024/02/04 00:47:09;;;;;;;3.15;1.95;;;;;;;;;;5907956;28;20041;-84
2024/02/04 00:50:00;;;;;;;3.70;1.38;;;;;;;;;;5909584;28;20032;-84
2024/02/04 00:52:53;;;;;;;1.60;1.35;;;;;;;;;;5909709;28;20045;-85
2024/02/04 00:55:44;;;;;;;0.43;0.43;;;;;;;;;;5924416;28;20071;-83
2024/02/04 00:58:35;;;;;;;2.70;1.35;;;;;;;;;;5907698;28;20079;-85
2024/02/04 01:01:26;;;;;;;1.17;1.08;;;;;;;;;;5904195;28;20045;-84
2024/02/04 01:04:17;;;;;;;1.05;0.98;;;;;;;;;;5893604;28;20053;-85
2024/02/04 01:07:08;;;;;;;1.70;1.25;;;;;;;;;;5872646;28;20048;-85
2024/02/04 01:09:59;;;;;;;1.58;0.93;;;;;;;;;;5891015;28;20480;-85
2024/02/04 01:12:50;;;;;;;0.77;0.73;;;;;;;;;;5888937;28;20075;-86
2024/02/04 01:15:40;;;;;;;1.25;1.13;;;;;;;;;;5888984;28;20524;-86
2024/02/04 01:18:32;;;;;;;0.77;0.77;;;;;;;;;;5890029;28;20430;-87
2024/02/04 01:21:23;;;;;;;0.82;0.82;;;;;;;;;;5888662;28;20111;-87
2024/02/04 01:24:13;;;;;;;1.42;1.20;;;;;;;;;;5889960;28;20122;-86
2024/02/04 01:27:04;;;;;;;2.55;1.10;;;;;;;;;;5888665;28;20049;-85
2024/02/04 01:29:56;;;;;;;1.17;0.85;;;;;;;;;;5890352;28;20044;-87
2024/02/04 01:32:47;;;;;;;1.73;1.30;;;;;;;;;;5904954;28;20128;-85
2024/02/04 01:35:38;;;;;;;1.42;1.08;;;;;;;;;;5889586;28;20067;-86
2024/02/04 01:38:29;;;;;;;1.75;1.02;;;;;;;;;;5905043;28;20095;-87
2024/02/04 01:41:20;;;;;;;0.63;0.63;;;;;;;;;;5872067;28;20418;-88
2024/02/04 01:44:11;;;;;;;0.95;0.70;;;;;;;;;;5888344;28;20152;-87
2024/02/04 01:47:02;;;;;;;1.40;1.23;;;;;;;;;;5889577;28;20045;-85
2024/02/04 01:49:52;;;;;;;3.13;0.90;;;;;;;;;;5888654;28;20052;-87
2024/02/04 01:52:44;;;;;;;1.60;1.20;;;;;;;;;;5904296;28;20459;-87
2024/02/04 01:55:35;;;;;;;0.90;0.85;;;;;;;;;;5887897;28;20124;-87
2024/02/04 01:58:26;;;;;;;1.15;0.88;;;;;;;;;;5887792;28;20037;-87
2024/02/04 02:01:17;;;;;;;0.60;0.60;;;;;;;;;;5904184;28;20071;-87
2024/02/04 02:04:08;;;;;;;2.03;1.23;;;;;;;;;;5887406;28;20045;-87
2024/02/04 02:07:00;;;;;;;1.33;1.23;;;;;;;;;;5889727;28;20068;-87
2024/02/04 02:09:51;;;;;;;7.03;1.75;;;;;;;;;;5888277;28;20055;-87
2024/02/04 02:12:52;;;;;;;1.15;1.05;;;;;;;;;;5888988;28;20406;-87
2024/02/04 02:15:51;;;;;;;3.47;1.00;;;;;;;;;;5887254;28;20060;-87
2024/02/04 02:19:21;;;;;;;1.27;1.00;;;;;;;;;;5887492;28;20041;-87
2024/02/04 02:22:52;;;;;;;1.50;1.23;;;;;;;;;;5887721;28;20111;-87
2024/02/04 02:25:44;;;;;;;0.80;0.80;;;;;;;;;;5881416;28;20048;-88
2024/02/04 02:28:34;;;;;;;0.50;0.50;;;;;;;;;;5887061;28;20072;-86
2024/02/04 02:31:25;;;;;;;0.43;0.43;;;;;;;;;;5903363;28;20045;-85
2024/02/04 02:34:34;;;;;;;0.40;0.40;;;;;;;;;;5887398;28;20045;-86
2024/02/04 02:37:50;;;;;;;0.63;0.63;;;;;;;;;;5886989;28;20048;-85
2024/02/04 02:40:58;;;;;;;0.30;0.30;;;;;;;;;;5887093;28;20045;-85
2024/02/04 02:43:52;;;;;;;0.75;0.65;;;;;;;;;;5887105;28;20040;-85
2024/02/04 02:46:44;;;;;;;0.95;0.73;;;;;;;;;;5870512;28;20048;-85
2024/02/04 02:49:34;;;;;;;6.85;1.33;;;;;;;;;;5888248;28;20044;-84
2024/02/04 02:52:25;;;;;;;0.60;0.55;;;;;;;;;;5886478;28;20149;-84
2024/02/04 02:55:16;;;;;;;0.77;0.70;;;;;;;;;;5886795;28;20435;-84
2024/02/04 02:58:07;;;;;;;2.20;0.40;;;;;;;;;;5886562;28;20056;-84
2024/02/04 03:00:58;;;;;;;0.57;0.57;;;;;;;;;;5888719;28;20048;-85
2024/02/04 03:03:49;;;;;;;0.35;0.35;;;;;;;;;;5902957;28;20052;-83
2024/02/04 03:06:40;;;;;;;0.20;0.20;;;;;;;;;;5886410;28;20048;-85
2024/02/04 03:09:31;;;;;;;0.10;0.10;;;;;;;;;;5886636;28;20120;-83
2024/02/04 03:12:22;;;;;;;0.45;0.45;;;;;;;;;;5886025;28;20056;-82
2024/02/04 03:15:13;;;;;;;1.15;0.90;;;;;;;;;;5902783;28;20078;-83
2024/02/04 03:18:04;;;;;;;0.63;0.45;;;;;;;;;;5887347;28;20041;-82
2024/02/04 03:20:54;;;;;;;0.68;0.68;;;;;;;;;;5886635;28;20076;-82
2024/02/04 03:23:45;;;;;;;0.47;0.47;;;;;;;;;;5887348;28;20052;-83
2024/02/04 03:26:36;;;;;;;0.50;0.50;;;;;;;;;;5902515;28;20486;-83
2024/02/04 03:29:27;;;;;;;0.22;0.22;;;;;;;;;;5887344;28;20056;-83
2024/02/04 03:32:17;;;;;;;0.60;0.38;;;;;;;;;;5885793;28;20426;-84
2024/02/04 03:35:08;;;;;;;0.30;0.30;;;;;;;;;;5886069;28;20060;-83
2024/02/04 03:37:59;;;;;;;0.20;0.20;;;;;;;;;;5886585;28;20053;-83
2024/02/04 03:40:50;;;;;;;0.10;0.10;;;;;;;;;;5902600;28;20060;-83
2024/02/04 03:43:41;;;;;;;0.20;0.20;;;;;;;;;;5885669;28;20510;-83
2024/02/04 03:46:31;;;;;;;1.02;0.63;;;;;;;;;;5885774;28;20055;-83
2024/02/04 03:49:22;;;;;;;0.50;0.40;;;;;;;;;;5901922;28;20059;-82
2024/02/04 03:52:13;;;;;;;0.90;0.65;;;;;;;;;;5886484;28;20182;-82
2024/02/04 03:55:04;;;;;;;1.13;1.00;;;;;;;;;;5885592;28;20503;-82
2024/02/04 03:57:57;;;;;;;0.68;0.55;;;;;;;;;;5887451;28;20498;-83
2024/02/04 04:00:48;;;;;;;0.30;0.30;;;;;;;;;;5885571;28;20069;-82
2024/02/04 04:03:43;;;;;;;0.20;0.20;;;;;;;;;;5884858;28;20152;-82
2024/02/04 04:06:34;;;;;;;0.10;0.10;;;;;;;;;;5885307;28;20048;-83
2024/02/04 04:09:25;;;;;;;0.10;0.10;;;;;;;;;;5884726;28;20072;-82
2024/02/04 04:12:15;;;;;;;3.20;0.57;;;;;;;;;;5885942;28;20048;-83
2024/02/04 04:15:07;;;;;;;0.98;0.70;;;;;;;;;;5885229;28;20041;-82
2024/02/04 04:17:57;;;;;;;0.40;0.40;;;;;;;;;;5885211;28;20064;-82
2024/02/04 04:20:48;;;;;;;0.30;0.30;;;;;;;;;;5884876;28;20107;-82
2024/02/04 04:23:39;;;;;;;0.43;0.43;;;;;;;;;;5886006;28;20045;-82
2024/02/04 04:26:31;;;;;;;3.05;1.10;;;;;;;;;;5885875;28;20044;-82
2024/02/04 04:29:22;;;;;;;0.85;0.85;;;;;;;;;;5885009;28;20384;-82
2024/02/04 04:32:13;;;;;;;0.47;0.47;;;;;;;;;;5884377;28;20045;-82
2024/02/04 04:35:04;;;;;;;0.63;0.63;;;;;;;;;;5886287;28;20045;-81
2024/02/04 04:37:55;;;;;;;1.80;0.60;;;;;;;;;;5886453;28;20697;-82
2024/02/04 04:40:45;;;;;;;0.90;0.90;;;;;;;;;;5900544;28;20525;-81
2024/02/04 04:43:39;;;;;;;0.28;0.28;;;;;;;;;;5884543;28;20517;-82
2024/02/04 04:46:30;;;;;;;0.30;0.30;;;;;;;;;;5884442;28;20071;-81
2024/02/04 04:49:21;;;;;;;0.13;0.13;;;;;;;;;;5868167;28;20640;-81
2024/02/04 04:52:13;;;;;;;0.40;0.30;;;;;;;;;;5867872;28;20041;-82
2024/02/04 04:55:05;;;;;;;0.25;0.25;;;;;;;;;;5884663;28;20041;-82
2024/02/04 04:57:55;;;;;;;1.10;1.00;;;;;;;;;;5868280;28;20048;-83
2024/02/04 05:00:46;;;;;;;0.55;0.55;;;;;;;;;;5884407;28;20435;-82
2024/02/04 05:03:37;;;;;;;1.25;1.15;;;;;;;;;;5884487;28;20043;-82
2024/02/04 05:06:29;;;;;;;1.65;0.68;;;;;;;;;;5884240;28;20056;-83
2024/02/04 05:09:20;;;;;;;0.13;0.13;;;;;;;;;;5868121;28;25401;-82
2024/02/04 05:12:11;;;;;;;3.92;0.55;;;;;;;;;;5884156;28;20050;-82
2024/02/04 05:15:02;;;;;;;1.00;0.57;;;;;;;;;;5884575;28;20049;-83
2024/02/04 05:17:53;;;;;;;0.45;0.45;;;;;;;;;;5884571;28;20465;-83
2024/02/04 05:20:44;;;;;;;0.80;0.60;;;;;;;;;;5885166;28;20060;-83
2024/02/04 05:23:36;;;;;;;0.65;0.65;;;;;;;;;;5884239;28;20075;-85
2024/02/04 05:26:27;;;;;;;1.42;0.52;;;;;;;;;;5884046;28;20128;-82
2024/02/04 05:29:18;;;;;;;2.70;0.55;;;;;;;;;;5884065;28;20060;-83
2024/02/04 05:32:09;;;;;;;1.33;0.90;;;;;;;;;;5884992;28;20049;-82
2024/02/04 05:35:00;;;;;;;0.25;0.25;;;;;;;;;;5884317;28;20048;-83
2024/02/04 05:37:51;;;;;;;0.20;0.20;;;;;;;;;;5883974;28;20100;-82
2024/02/04 05:40:42;;;;;;;1.08;0.68;;;;;;;;;;5885516;28;20071;-83
2024/02/04 05:43:33;;;;;;;0.30;0.30;;;;;;;;;;5883767;28;20051;-82
2024/02/04 05:46:23;;;;;;;1.30;1.00;;;;;;;;;;5884184;28;20041;-82
2024/02/04 05:49:14;;;;;;;0.47;0.32;;;;;;;;;;5884044;28;20063;-83
2024/02/04 05:52:06;;;;;;;0.32;0.32;;;;;;;;;;5887304;28;20056;-82
2024/02/04 05:54:57;;;;;;;0.68;0.68;;;;;;;;;;5888611;28;20053;-82
2024/02/04 05:57:52;;;;;;;0.43;0.43;;;;;;;;;;5888452;28;20051;-82
2024/02/04 06:00:44;;;;;;;1.05;0.95;;;;;;;;;;5887960;28;20119;-83
2024/02/04 06:03:35;;;;;;;1.25;1.02;;;;;;;;;;5888083;28;20687;-82
2024/02/04 06:06:26;;;;;;;0.60;0.60;;;;;;;;;;5887841;28;20126;-81
2024/02/04 06:09:17;;;;;;;0.63;0.63;;;;;;;;;;5887788;28;20056;-81
2024/02/04 06:12:07;;;;;;;0.40;0.40;;;;;;;;;;5887707;28;20135;-81
2024/02/04 06:14:58;;;;;;;0.57;0.57;;;;;;;;;;5889545;28;20111;-82
2024/02/04 06:17:49;;;;;;;0.35;0.35;;;;;;;;;;5870969;28;20056;-83
2024/02/04 06:20:40;;;;;;;0.40;0.40;;;;;;;;;;5904570;28;20041;-82
2024/02/04 06:23:31;;;;;;;0.70;0.70;;;;;;;;;;5904288;28;20041;-82
2024/02/04 06:26:22;;;;;;;0.10;0.10;;;;;;;;;;5887464;28;20487;-82
2024/02/04 06:29:12;;;;;;;1.90;1.17;;;;;;;;;;5888707;28;20041;-81
2024/02/04 06:32:04;;;;;;;0.40;0.40;;;;;;;;;;5887306;28;20045;-84
2024/02/04 06:34:55;;;;;;;0.55;0.55;;;;;;;;;;5889455;28;20041;-82
2024/02/04 06:37:46;;;;;;;0.28;0.28;;;;;;;;;;5870769;28;20185;-83
2024/02/04 06:40:37;;;;;;;0.47;0.38;;;;;;;;;;5888650;28;20041;-82
2024/02/04 06:43:28;;;;;;;0.40;0.40;;;;;;;;;;5888412;28;20056;-81
2024/02/04 06:46:28;;;;;;;0.20;0.20;;;;;;;;;;5887967;28;20060;-81
2024/02/04 06:49:19;;;;;;;7.75;0.98;;;;;;;;;;5886690;28;20068;-81
2024/02/04 06:52:09;;;;;;;1.30;0.93;;;;;;;;;;5886702;28;20045;-80
2024/02/04 06:55:00;;;;;;;0.43;0.43;;;;;;;;;;5886770;28;20040;-79
2024/02/04 06:57:52;;;;;;;0.50;0.50;;;;;;;;;;5887040;28;20505;-84
2024/02/04 07:00:42;;;;;;;4.25;0.80;;;;;;;;;;5886823;28;20534;-82
2024/02/04 07:03:34;;;;;;;0.32;0.30;;;;;;;;;;5902499;28;20036;-82
2024/02/04 07:06:25;;;;;;;2.85;0.65;;;;;;;;;;5870160;28;20041;-81
2024/02/04 07:09:16;;;;;;;0.55;0.43;;;;;;;;;;5886776;28;20052;-81
2024/02/04 07:12:07;;;;;;;2.08;0.65;;;;;;;;;;5886317;28;20406;-81
2024/02/04 07:14:58;;;;;;;1.95;0.43;;;;;;;;;;5903844;28;20048;-81
2024/02/04 07:17:49;;;;;;;1.10;0.90;;;;;;;;;;5886396;28;20475;-82
2024/02/04 07:20:40;;;;;;;0.30;0.30;;;;;;;;;;5886357;28;20045;-81
2024/02/04 07:23:31;;;;;;;1.02;0.90;;;;;;;;;;5887361;28;20055;-81
2024/02/04 07:26:22;;;;;;;0.38;0.38;;;;;;;;;;5885969;28;20048;-81
2024/02/04 07:29:13;;;;;;;1.40;1.23;;;;;;;;;;5902299;28;20045;-82
2024/02/04 07:32:04;;;;;;;1.02;0.90;;;;;;;;;;5869588;28;20041;-82
2024/02/04 07:34:55;;;;;;;10.95;1.95;;;;;;;;;;5887825;28;20048;-83
2024/02/04 07:37:46;;;;;;;0.63;0.57;;;;;;;;;;5887510;28;20095;-81
2024/02/04 07:40:37;;;;;;;0.77;0.60;;;;;;;;;;5869440;28;20410;-82
2024/02/04 07:43:28;;;;;;;0.88;0.77;;;;;;;;;;5885604;28;20510;-81
2024/02/04 07:46:18;;;;;;;1.67;1.27;;;;;;;;;;5869093;28;20045;-81
2024/02/04 07:49:09;;;;;;;1.10;0.65;;;;;;;;;;5902119;28;20044;-82
2024/02/04 07:52:00;;;;;;;0.52;0.52;;;;;;;;;;5888375;28;20091;-79
2024/02/04 07:54:51;;;;;;;1.20;1.10;;;;;;;;;;5886140;28;20056;-82
2024/02/04 07:57:43;;;;;;;0.52;0.52;;;;;;;;;;5901503;28;20049;-81
2024/02/04 08:00:34;;;;;;;1.05;1.00;;;;;;;;;;5884752;28;20491;-80
2024/02/04 08:03:24;;;;;;;1.48;0.60;;;;;;;;;;5885238;28;20055;-82
2024/02/04 08:06:15;;;;;;;2.10;1.77;;;;;;;;;;5885116;28;20053;-81
2024/02/04 08:09:06;;;;;;;1.23;0.55;;;;;;;;;;5886128;28;20056;-80
2024/02/04 08:11:57;;;;;;;1.05;0.95;;;;;;;;;;5885619;28;20088;-81
2024/02/04 08:14:49;;;;;;;1.35;0.80;;;;;;;;;;5885738;28;20057;-80
2024/02/04 08:17:40;;;;;;;0.60;0.52;;;;;;;;;;5886349;28;20044;-82
2024/02/04 08:20:31;;;;;;;0.77;0.75;;;;;;;;;;5885007;28;20051;-81
2024/02/04 08:23:22;;;;;;;0.85;0.63;;;;;;;;;;5886184;28;20183;-81
2024/02/04 08:26:13;;;;;;;0.60;0.60;;;;;;;;;;5884702;28;20052;-80
2024/02/04 08:29:04;;;;;;;1.10;0.63;;;;;;;;;;5885130;28;20048;-80
2024/02/04 08:31:55;;;;;;;0.98;0.60;;;;;;;;;;5885208;28;20041;-80
2024/02/04 08:34:47;;;;;;;1.00;0.85;;;;;;;;;;5868410;28;20037;-81
2024/02/04 08:37:39;;;;;;;0.60;0.60;;;;;;;;;;5900823;28;20522;-82
2024/02/04 08:40:29;;;;;;;1.85;1.23;;;;;;;;;;5884615;28;20045;-81
2024/02/04 08:43:20;;;;;;;1.95;1.17;;;;;;;;;;5883987;28;22209;-82
2024/02/04 08:46:11;;;;;;;0.65;0.60;;;;;;;;;;5885639;28;20083;-81
2024/02/04 08:49:04;;;;;;;5.35;0.95;;;;;;;;;;5884214;28;20561;-82
2024/02/04 08:51:55;;;;;;;7.75;1.20;;;;;;;;;;5884493;28;20079;-80
2024/02/04 08:54:46;;;;;;;9.30;0.55;;;;;;;;;;5884338;28;20517;-82
2024/02/04 08:57:37;;;;;;;0.77;0.73;;;;;;;;;;5885338;28;20402;-82
2024/02/04 09:00:27;;;;;;;3.28;2.03;;;;;;;;;;5884452;28;20056;-80
2024/02/04 09:03:19;;;;;;;0.55;0.55;;;;;;;;;;5885346;28;20143;-80
2024/02/04 09:06:09;;;;;;;3.38;1.25;;;;;;;;;;5900939;28;20044;-80
2024/02/04 09:09:00;;;;;;;0.35;0.35;;;;;;;;;;5885889;28;20512;-80
2024/02/04 09:11:51;;;;;;;1.90;1.25;;;;;;;;;;5886077;28;20056;-81
2024/02/04 09:14:43;;;;;;;1.27;1.17;;;;;;;;;;5900770;28;20119;-82
2024/02/04 09:17:35;;;;;;;3.40;2.40;;;;;;;;;;5884057;28;20049;-81
2024/02/04 09:20:25;;;;;;;0.68;0.68;;;;;;;;;;5883770;28;20690;-81
2024/02/04 09:23:16;;;;;;;4.05;1.17;;;;;;;;;;5884755;28;20045;-81
2024/02/04 09:26:07;;;;;;;7.93;2.15;;;;;;;;;;5886943;28;20041;-79
2024/02/04 09:28:58;;;;;;;0.70;0.70;;;;;;;;;;5888662;28;20037;-80
2024/02/04 09:31:51;;;;;;;0.50;0.50;;;;;;;;;;5888236;28;20045;-80
2024/02/04 09:34:42;;;;;;;0.73;0.73;;;;;;;;;;5888266;28;20091;-79
2024/02/04 09:37:33;;;;;;;0.47;0.47;;;;;;;;;;5888213;28;20045;-81
2024/02/04 09:40:24;;;;;;;1.23;0.70;;;;;;;;;;5904961;28;20044;-80
2024/02/04 09:43:15;;;;;;;0.52;0.47;;;;;;;;;;5888044;28;20055;-82
2024/02/04 09:46:06;;;;;;;0.95;0.80;;;;;;;;;;5888284;28;20053;-80
2024/02/04 09:48:57;;;;;;;0.82;0.82;;;;;;;;;;5888661;28;20049;-79
2024/02/04 09:51:48;;;;;;;1.35;0.60;;;;;;;;;;5887957;28;20037;-82
2024/02/04 09:54:50;;;;;;;7.03;1.50;;;;;;;;;;5887595;28;20521;-79
2024/02/04 09:57:41;;;;;;;4.28;1.55;;;;;;;;;;5887833;28;20455;-79
2024/02/04 10:00:33;;;;;;;5.22;1.75;;;;;;;;;;5887567;28;20045;-80
2024/02/04 10:03:24;;;;;;;1.15;0.88;;;;;;;;;;5887847;28;20522;-80
2024/02/04 10:06:15;;;;;;;1.77;1.10;;;;;;;;;;5904060;28;20525;-79
2024/02/04 10:09:07;;;;;;;2.45;0.98;;;;;;;;;;5887257;28;20055;-80
2024/02/04 10:11:58;;;;;;;0.65;0.55;;;;;;;;;;5889127;28;20060;-80
2024/02/04 10:14:49;;;;;;;0.70;0.45;;;;;;;;;;5870820;28;20052;-80
2024/02/04 10:17:46;;;;;;;4.22;0.73;;;;;;;;;;5887362;28;20048;-81
2024/02/04 10:20:37;;;;;;;0.40;0.32;;;;;;;;;;5887289;28;20049;-80
2024/02/04 10:23:28;;;;;;;0.63;0.63;;;;;;;;;;5886955;28;20048;-81
2024/02/04 10:26:20;;;;;;;0.50;0.50;;;;;;;;;;5887093;28;20045;-80
2024/02/04 10:29:11;;;;;;;1.55;1.15;;;;;;;;;;5870732;28;20060;-80
2024/02/04 10:32:03;;;;;;;2.40;0.73;;;;;;;;;;5886632;28;20041;-79
2024/02/04 10:34:53;;;;;;;4.75;1.58;;;;;;;;;;5888581;28;20051;-80
2024/02/04 10:37:45;;;;;;;10.88;0.85;;;;;;;;;;5887324;28;20266;-80
2024/02/04 10:40:36;;;;;;;2.55;1.58;;;;;;;;;;5903071;28;20045;-80
2024/02/04 10:43:34;;;;;;;1.60;1.13;;;;;;;;;;5870087;28;20052;-81
2024/02/04 10:46:29;;;;;;;0.30;0.30;;;;;;;;;;5886625;28;20522;-80
2024/02/04 10:49:21;;;;;;;1.15;0.57;;;;;;;;;;5886500;28;20603;-80
2024/02/04 10:52:12;;;;;;;1.73;1.23;;;;;;;;;;5886439;28;20052;-80
2024/02/04 10:55:09;;;;;;;0.70;0.60;;;;;;;;;;5886440;28;20489;-80
2024/02/04 10:58:01;;;;;;;2.95;1.17;;;;;;;;;;5886943;28;20399;-81
2024/02/04 11:00:52;;;;;;;0.98;0.60;;;;;;;;;;5870347;28;20055;-80
2024/02/04 11:03:46;;;;;;;6.82;1.90;;;;;;;;;;5886007;28;20090;-80
2024/02/04 11:06:38;;;;;;;2.92;1.33;;;;;;;;;;5886399;28;20139;-80
2024/02/04 11:09:29;;;;;;;13.32;2.13;;;;;;;;;;5886251;28;20060;-81
2024/02/04 11:12:21;;;;;;;1.45;1.33;;;;;;;;;;5886400;28;20138;-80
2024/02/04 11:15:15;;;;;;;5.57;1.75;;;;;;;;;;5887192;28;20040;-80
2024/02/04 11:18:24;;;;;;;2.60;0.70;;;;;;;;;;5885807;28;20055;-80
2024/02/04 11:21:33;;;;;;;6.05;1.98;;;;;;;;;;5870473;28;20191;-80
2024/02/04 11:25:10;;;;;;;4.20;1.88;;;;;;;;;;5886714;28;20060;-80
2024/02/04 11:28:02;;;;;;;4.38;2.28;;;;;;;;;;5901414;28;20044;-79
2024/02/04 11:30:55;;;;;;;3.95;1.20;;;;;;;;;;5886272;28;20421;-81
2024/02/04 11:33:46;;;;;;;1.88;0.77;;;;;;;;;;5886808;28;20498;-81
2024/02/04 11:36:40;;;;;;;2.80;1.42;;;;;;;;;;5886634;28;20067;-80
2024/02/04 11:39:31;;;;;;;1.75;1.30;;;;;;;;;;5885679;28;20731;-80
2024/02/04 11:42:31;;;;;;;0.40;0.40;;;;;;;;;;5885166;28;20049;-81
2024/02/04 11:45:22;;;;;;;2.03;1.58;;;;;;;;;;5885434;28;20048;-82
2024/02/04 11:48:13;;;;;;;0.55;0.52;;;;;;;;;;5886247;28;20048;-80
2024/02/04 11:51:05;;;;;;;3.30;1.23;;;;;;;;;;5867836;28;20044;-81
2024/02/04 11:53:58;;;;;;;0.93;0.93;;;;;;;;;;5885535;28;20049;-80
2024/02/04 11:56:55;;;;;;;0.85;0.82;;;;;;;;;;5902145;28;20069;-80
2024/02/04 11:59:47;;;;;;;3.40;1.50;;;;;;;;;;5885099;28;20052;-80
2024/02/04 12:02:38;;;;;;;6.18;1.25;;;;;;;;;;5884929;28;20041;-82
2024/02/04 12:05:38;;;;;;;1.30;0.65;;;;;;;;;;5885202;28;20045;-82
2024/02/04 12:08:32;;;;;;;7.05;1.38;;;;;;;;;;5868672;28;20048;-81
2024/02/04 12:11:24;;;;;;;3.50;1.58;;;;;;;;;;5885064;28;20041;-82
2024/02/04 12:14:15;;;;;;;4.72;1.38;;;;;;;;;;5885995;28;20450;-81
2024/02/04 12:17:15;;;;;;;2.25;1.38;;;;;;;;;;5886006;28;20040;-81
2024/02/04 12:20:06;;;;;;;6.25;1.85;;;;;;;;;;5885796;28;20049;-82
2024/02/04 12:22:57;;;;;;;2.20;1.20;;;;;;;;;;5886414;28;20058;-81
2024/02/04 12:25:48;;;;;;;0.40;0.40;;;;;;;;;;5886140;28;20394;-81
2024/02/04 12:28:39;;;;;;;0.50;0.40;;;;;;;;;;5884396;28;20037;-83
2024/02/04 12:31:32;;;;;;;1.08;0.93;;;;;;;;;;5884512;28;20040;-83
2024/02/04 12:34:23;;;;;;;4.50;1.75;;;;;;;;;;5885994;28;20049;-83
2024/02/04 12:37:14;;;;;;;1.55;1.45;;;;;;;;;;5901543;28;20076;-84
2024/02/04 12:40:06;;;;;;;0.65;0.65;;;;;;;;;;5901214;28;20056;-84
2024/02/04 12:42:59;;;;;;;4.60;2.88;;;;;;;;;;5868813;28;20072;-85
2024/02/04 12:45:57;;;;;;;;;;;;;;;;;;5885456;28;20191;-85
2024/02/04 12:48:58;;;;;;;3.92;1.27;;;;;;;;;;5900914;28;19995;-84
2024/02/04 12:52:05;;;;;;;1.77;1.67;;;;;;;;;;5884927;28;20383;-84
2024/02/04 12:54:56;;;;;;;15.32;3.70;;;;;;;;;;5884529;28;20495;-84
2024/02/04 12:57:47;;;;;;;6.05;3.13;;;;;;;;;;5884345;28;20122;-84
2024/02/04 13:00:38;;;;;;;3.05;2.30;;;;;;;;;;5885702;28;20049;-84
2024/02/04 13:03:29;;;;;;;2.13;2.00;;;;;;;;;;5888974;28;20049;-84
2024/02/04 13:06:20;;;;;;;7.03;4.00;;;;;;;;;;5889297;28;20425;-84
2024/02/04 13:09:11;;;;;;;5.50;2.25;;;;;;;;;;5889049;28;20052;-83
2024/02/04 13:12:08;;;;;;;1.60;1.40;;;;;;;;;;5889309;28;20531;-82
2024/02/04 13:14:59;;;;;;;1.55;1.30;;;;;;;;;;5873464;28;20045;-83
2024/02/04 13:17:50;;;;;;;1.98;1.85;;;;;;;;;;5890874;28;20040;-83
2024/02/04 13:20:42;;;;;;;3.25;2.35;;;;;;;;;;5895070;28;20052;-83
2024/02/04 13:23:34;;;;;;;4.43;1.42;;;;;;;;;;5905331;28;20042;-83
2024/02/04 13:26:25;;;;;;;1.75;1.65;;;;;;;;;;5909750;28;20048;-83
2024/02/04 13:29:16;;;;;;;1.80;1.63;;;;;;;;;;5907945;28;20048;-83
2024/02/04 13:32:07;;;;;;;7.57;2.80;;;;;;;;;;5908928;28;20052;-82
2024/02/04 13:34:58;;;;;;;5.63;3.22;;;;;;;;;;5912263;28;20501;-83
2024/02/04 13:38:03;;;;;;;4.20;3.30;;;;;;;;;;5925667;28;20051;-83
2024/02/04 13:40:54;;;;;;;8.25;2.97;;;;;;;;;;5913309;28;20048;-83
2024/02/04 13:43:45;;;;;;;6.05;4.10;;;;;;;;;;5912193;28;20044;-83
2024/02/04 13:46:36;;;;;;;3.92;2.58;;;;;;;;;;5910458;28;20051;-84
2024/02/04 13:49:26;;;;;;;10.43;7.13;;;;;;;;;;5927865;28;20055;-83
2024/02/04 13:52:17;;;;;;;5.78;4.07;;;;;;;;;;5928440;28;20178;-84
2024/02/04 13:55:08;;;;;;;11.85;6.97;;;;;;;;;;5908382;28;20490;-83
2024/02/04 13:58:00;;;;;;;11.43;8.05;;;;;;;;;;5913165;28;20064;-83
2024/02/04 14:00:51;;;;;;;8.27;6.05;;;;;;;;;;5911579;28;20045;-84
2024/02/04 14:03:42;;;;;;;7.88;4.50;;;;;;;;;;5911273;28;20037;-83
2024/02/04 14:06:33;;;;;;;5.18;4.50;;;;;;;;;;5911135;28;20052;-84
2024/02/04 14:09:24;;;;;;;7.25;5.97;;;;;;;;;;5910060;28;20049;-83
2024/02/04 14:12:15;;;;;;;9.35;6.63;;;;;;;;;;5891382;28;20048;-83
2024/02/04 14:15:07;;;;;;;5.10;4.55;;;;;;;;;;5908524;28;20052;-83
2024/02/04 14:17:59;;;;;;;3.55;2.85;;;;;;;;;;5911030;28;20056;-83
2024/02/04 14:20:50;;;;;;;4.82;3.78;;;;;;;;;;5924501;28;20174;-84
2024/02/04 14:23:41;;;;;;;4.28;3.47;;;;;;;;;;5881275;28;20045;-83
2024/02/04 14:26:32;;;;;;;6.55;4.95;;;;;;;;;;5909577;28;20151;-83
2024/02/04 14:29:23;;;;;;;5.93;3.50;;;;;;;;;;5910833;28;20052;-83
2024/02/04 14:32:14;;;;;;;5.65;4.90;;;;;;;;;;5909044;28;20074;-83
2024/02/04 14:35:05;;;;;;;6.72;4.88;;;;;;;;;;5908838;28;20577;-82
2024/02/04 14:37:56;;;;;;;4.10;3.15;;;;;;;;;;5910269;28;20181;-82
2024/02/04 14:40:46;;;;;;;6.60;4.55;;;;;;;;;;5908847;28;20037;-83
2024/02/04 14:43:37;;;;;;;2.38;1.88;;;;;;;;;;5908454;28;20048;-82
2024/02/04 14:46:28;;;;;;;2.45;1.92;;;;;;;;;;5908585;28;20041;-83
2024/02/04 14:49:19;;;;;;;3.47;3.00;;;;;;;;;;5907986;28;20052;-82
2024/02/04 14:52:11;;;;;;;4.38;3.70;;;;;;;;;;5907623;28;20565;-83
2024/02/04 14:55:01;;;;;;;2.08;1.60;;;;;;;;;;5907834;28;20040;-83
2024/02/04 14:57:52;;;;;;;3.90;2.60;;;;;;;;;;5908770;28;20123;-82
2024/02/04 15:00:43;;;;;;;3.28;1.90;;;;;;;;;;5910795;28;20040;-82
2024/02/04 15:03:34;;;;;;;3.03;2.42;;;;;;;;;;5910027;28;20068;-83
2024/02/04 15:06:25;;;;;;;5.25;3.42;;;;;;;;;;5909126;28;20151;-82
2024/02/04 15:09:16;;;;;;;6.70;4.50;;;;;;;;;;5908679;28;20056;-83
2024/02/04 15:12:08;;;;;;;3.83;3.40;;;;;;;;;;5908957;28;20049;-84
2024/02/04 15:15:00;;;;;;;3.63;2.88;;;;;;;;;;5910830;28;20415;-83
2024/02/04 15:17:52;;;;;;;3.35;2.20;;;;;;;;;;5909114;28;20072;-83
2024/02/04 15:20:43;;;;;;;3.28;2.95;;;;;;;;;;5909206;28;20067;-84
2024/02/04 15:23:35;;;;;;;11.18;7.13;;;;;;;;;;5907696;28;20352;-83
2024/02/04 15:26:27;;;;;;;6.22;5.35;;;;;;;;;;5908347;28;20052;-84
2024/02/04 15:29:19;;;;;;;9.23;6.47;;;;;;;;;;5908335;28;20056;-83
2024/02/04 15:32:11;;;;;;;5.60;3.97;;;;;;;;;;5909778;28;20386;-84
2024/02/04 15:35:07;;;;;;;8.73;4.63;;;;;;;;;;5908575;28;20506;-84
2024/02/04 15:37:58;;;;;;;3.25;2.92;;;;;;;;;;5908432;28;20043;-84
2024/02/04 15:40:49;;;;;;;4.40;3.67;;;;;;;;;;5908381;28;20056;-85
2024/02/04 15:43:40;;;;;;;4.78;2.17;;;;;;;;;;5909284;28;20048;-84
2024/02/04 15:46:32;;;;;;;3.97;2.70;;;;;;;;;;5908293;28;20169;-84
2024/02/04 15:49:25;;;;;;;4.07;2.55;;;;;;;;;;5908009;28;20162;-84
2024/02/04 15:52:16;;;;;;;3.85;2.47;;;;;;;;;;5909170;28;20135;-84
2024/02/04 15:55:08;;;;;;;3.33;1.85;;;;;;;;;;5891762;28;20040;-85
2024/02/04 15:58:02;;;;;;;1.95;1.73;;;;;;;;;;5908841;28;20055;-85
2024/02/04 16:00:53;;;;;;;3.85;2.25;;;;;;;;;;5892298;28;20157;-84
2024/02/04 16:03:46;;;;;;;1.38;1.20;;;;;;;;;;5907850;28;20681;-84
2024/02/04 16:06:38;;;;;;;5.63;1.83;;;;;;;;;;5907183;28;20495;-83
2024/02/04 16:09:30;;;;;;;3.63;2.17;;;;;;;;;;5907722;28;20075;-84
2024/02/04 16:12:21;;;;;;;3.50;2.75;;;;;;;;;;5907901;28;20410;-84
2024/02/04 16:15:13;;;;;;;3.15;1.67;;;;;;;;;;5909120;28;20044;-84
2024/02/04 16:18:06;;;;;;;2.35;1.63;;;;;;;;;;5907491;28;20048;-83
2024/02/04 16:20:57;;;;;;;9.23;3.50;;;;;;;;;;5910056;28;20044;-84
2024/02/04 16:23:48;;;;;;;3.88;2.35;;;;;;;;;;5907395;28;20055;-84
2024/02/04 16:26:39;;;;;;;2.78;1.60;;;;;;;;;;5890849;28;20351;-84
2024/02/04 16:29:30;;;;;;;5.13;2.55;;;;;;;;;;5908646;28;20045;-84
2024/02/04 16:32:20;;;;;;;2.60;1.55;;;;;;;;;;5907730;28;20455;-83
2024/02/04 16:35:11;;;;;;;2.05;1.73;;;;;;;;;;5906661;28;20494;-83
2024/02/04 16:38:03;;;;;;;3.22;1.25;;;;;;;;;;5906995;28;20135;-82
2024/02/04 16:40:55;;;;;;;1.13;0.70;;;;;;;;;;5909616;28;20056;-82
2024/02/04 16:43:45;;;;;;;3.58;0.95;;;;;;;;;;5924190;28;20123;-83
2024/02/04 16:46:45;;;;;;;1.60;1.08;;;;;;;;;;5890548;28;20044;-84
2024/02/04 16:49:36;;;;;;;1.38;1.05;;;;;;;;;;5885188;28;20041;-84
2024/02/04 16:52:27;;;;;;;4.20;2.15;;;;;;;;;;5891590;28;20048;-83
2024/02/04 16:55:18;;;;;;;2.47;2.25;;;;;;;;;;5908005;28;20052;-83
2024/02/04 16:58:09;;;;;;;1.95;1.02;;;;;;;;;;5907059;28;20045;-82
2024/02/04 17:01:00;;;;;;;1.70;1.42;;;;;;;;;;5907516;28;20120;-81
2024/02/04 17:03:52;;;;;;;2.10;1.73;;;;;;;;;;5907216;28;20049;-83
2024/02/04 17:06:44;;;;;;;2.28;1.30;;;;;;;;;;5907494;28;20036;-83
2024/02/04 17:09:37;;;;;;;2.88;1.50;;;;;;;;;;5908406;28;20106;-82
2024/02/04 17:12:29;;;;;;;2.42;2.03;;;;;;;;;;5890743;28;20048;-82